createdAt,value
2022-09-10T00:02:15.219Z,93881.41
2022-09-10T00:04:41.682Z,93853.19
2022-09-10T00:07:14.057Z,93868.91
2022-09-10T00:09:40.414Z,93882.22
2022-09-10T00:12:07.091Z,93878.63
2022-09-10T00:14:33.560Z,93881.91
2022-09-10T00:17:01.714Z,93861.72
2022-09-10T00:19:29.315Z,93893.50
2022-09-10T00:21:55.680Z,93858.16
2022-09-10T00:24:22.534Z,93873.13
2022-09-10T00:26:48.912Z,93866.91
2022-09-10T00:29:17.449Z,93869.69
2022-09-10T00:31:44.813Z,93855.06
2022-09-10T00:34:12.762Z,93890.44
2022-09-10T00:36:41.143Z,93880.44
2022-09-10T00:39:10.751Z,93890.78
2022-09-10T00:41:39.203Z,93880.72
2022-09-10T00:44:54.231Z,93888.56
2022-09-10T00:47:27.012Z,93865.66
2022-09-10T00:50:01.538Z,93842.75
2022-09-10T00:52:29.307Z,93856.03
2022-09-10T00:54:56.427Z,93864.03
2022-09-10T00:57:23.981Z,93856.34
2022-09-10T00:59:55.963Z,93842.25
2022-09-10T01:02:22.365Z,93827.75
2022-09-10T01:04:49.272Z,93856.31
2022-09-10T01:07:15.754Z,93835.81
2022-09-10T01:09:42.995Z,93822.13
2022-09-10T01:12:16.137Z,93841.03
2022-09-10T01:15:10.156Z,93860.66
2022-09-10T01:17:42.297Z,93860.66
2022-09-10T01:20:33.001Z,93848.97
2022-09-10T01:23:31.268Z,93851.78
2022-09-10T01:26:19.256Z,93860.25
2022-09-10T01:29:11.246Z,93816.84
2022-09-10T01:32:02.097Z,93855.44
2022-09-10T01:34:42.403Z,93820.47
2022-09-10T01:37:17.963Z,93813.97
2022-09-10T01:39:47.241Z,93833.31
2022-09-10T01:42:14.526Z,93844.03
2022-09-10T01:44:48.374Z,93856.53
2022-09-10T01:47:45.911Z,93849.19
2022-09-10T01:50:34.979Z,93859.84
2022-09-10T01:53:08.190Z,93831.22
2022-09-10T01:55:50.330Z,93836.03
2022-09-10T01:58:35.437Z,93836.44
2022-09-10T02:01:09.559Z,93836.13
2022-09-10T02:03:38.576Z,93830.88
2022-09-10T02:06:09.384Z,93832.09
2022-09-10T02:08:39.872Z,93814.38
2022-09-10T02:11:09.440Z,93841.91
2022-09-10T02:13:36.427Z,93807.88
2022-09-10T02:16:06.177Z,93806.47
2022-09-10T02:18:33.032Z,93813.75
2022-09-10T02:21:02.792Z,93815.56
2022-09-10T02:23:40.862Z,93832.28
2022-09-10T02:26:07.292Z,93806.19
2022-09-10T02:28:33.851Z,93820.63
2022-09-10T02:31:00.216Z,93810.56
2022-09-10T02:33:31.023Z,93826.19
2022-09-10T02:35:58.458Z,93803.16
2022-09-10T02:38:24.967Z,93788.75
2022-09-10T02:40:51.326Z,93790.75
2022-09-10T02:43:17.705Z,93825.47
2022-09-10T02:45:44.789Z,93815.88
2022-09-10T02:48:11.200Z,93801.50
2022-09-10T02:50:37.686Z,93820.09
2022-09-10T02:53:04.098Z,93831.94
2022-09-10T02:55:31.465Z,93833.78
2022-09-10T02:57:58.340Z,93816.13
2022-09-10T03:00:24.817Z,93795.50
2022-09-10T03:02:51.175Z,93797.94
2022-09-10T03:05:17.715Z,93788.16
2022-09-10T03:07:44.804Z,93782.91
2022-09-10T03:10:11.274Z,93784.56
2022-09-10T03:12:39.074Z,93802.19
2022-09-10T03:15:06.130Z,93810.19
2022-09-10T03:17:32.799Z,93783.22
2022-09-10T03:19:59.198Z,93805.84
2022-09-10T03:22:25.563Z,93775.81
2022-09-10T03:24:51.979Z,93795.53
2022-09-10T03:27:18.334Z,93795.94
2022-09-10T03:29:45.252Z,93786.06
2022-09-10T03:32:11.600Z,93788.22
2022-09-10T03:34:39.862Z,93795.81
2022-09-10T03:37:07.282Z,93765.94
2022-09-10T03:39:33.685Z,93783.28
2022-09-10T03:42:00.037Z,93802.72
2022-09-10T03:44:26.379Z,93771.13
2022-09-10T03:46:52.734Z,93782.97
2022-09-10T03:49:19.077Z,93748.88
2022-09-10T03:51:45.447Z,93771.34
2022-09-10T03:54:13.851Z,93757.19
2022-09-10T03:56:40.486Z,93769.38
2022-09-10T03:59:06.958Z,93779.72
2022-09-10T04:01:34.519Z,93779.69
2022-09-10T04:04:01.259Z,93779.00
2022-09-10T04:06:28.156Z,93769.03
2022-09-10T04:08:54.528Z,93780.13
2022-09-10T04:11:21.105Z,93778.91
2022-09-10T04:13:48.465Z,93768.16
2022-09-10T04:16:16.390Z,93812.56
2022-09-10T04:18:42.929Z,93810.78
2022-09-10T04:21:09.312Z,93794.88
2022-09-10T04:23:35.715Z,93788.03
2022-09-10T04:26:11.521Z,93824.75
2022-09-10T04:28:38.297Z,93842.22
2022-09-10T04:31:04.705Z,93813.59
2022-09-10T04:33:33.115Z,93826.09
2022-09-10T04:36:00.942Z,93839.03
2022-09-10T04:38:30.392Z,93852.28
2022-09-10T04:40:57.936Z,93857.66
2022-09-10T04:43:25.610Z,93826.50
2022-09-10T04:45:53.019Z,93848.69
2022-09-10T04:48:19.406Z,93832.88
2022-09-10T04:51:05.377Z,93838.13
2022-09-10T04:53:34.313Z,93846.50
2022-09-10T04:56:01.001Z,93827.06
2022-09-10T04:58:27.370Z,93848.78
2022-09-10T05:00:56.963Z,93863.72
2022-09-10T05:03:23.894Z,93869.03
2022-09-10T05:05:51.108Z,93871.06
2022-09-10T05:08:17.574Z,93860.25
2022-09-10T05:10:45.276Z,93875.91
2022-09-10T05:13:11.659Z,93850.63
2022-09-10T05:15:41.364Z,93848.97
2022-09-10T05:18:07.745Z,93867.44
2022-09-10T05:20:35.605Z,93875.00
2022-09-10T05:23:04.104Z,93876.56
2022-09-10T05:25:30.761Z,93862.78
2022-09-10T05:27:58.250Z,93874.56
2022-09-10T05:30:24.629Z,93845.72
2022-09-10T05:32:53.208Z,93854.56
2022-09-10T05:35:19.931Z,93876.25
2022-09-10T05:37:46.343Z,93873.44
2022-09-10T05:40:14.701Z,93875.03
2022-09-10T05:42:41.119Z,93860.09
2022-09-10T05:45:09.971Z,93847.50
2022-09-10T05:47:37.975Z,93868.31
2022-09-10T05:50:07.065Z,93861.16
2022-09-10T05:52:33.606Z,93860.31
2022-09-10T05:55:00.058Z,93868.59
2022-09-10T05:57:28.578Z,93868.16
2022-09-10T05:59:54.949Z,93854.56
2022-09-10T06:02:24.179Z,93865.81
2022-09-10T06:04:50.838Z,93838.13
2022-09-10T06:07:17.196Z,93883.13
2022-09-10T06:09:50.857Z,93846.09
2022-09-10T06:12:17.305Z,93716.28
2022-09-10T06:14:43.644Z,93857.25
2022-09-10T06:17:10.004Z,93877.19
2022-09-10T06:19:36.376Z,93860.13
2022-09-10T06:22:02.736Z,93883.47
2022-09-10T06:24:29.133Z,93875.50
2022-09-10T06:26:55.503Z,93872.31
2022-09-10T06:29:22.406Z,93882.44
2022-09-10T06:31:49.180Z,93896.13
2022-09-10T06:34:18.945Z,93886.63
2022-09-10T06:36:47.874Z,93873.28
2022-09-10T06:39:14.209Z,93888.13
2022-09-10T06:41:40.730Z,93859.47
2022-09-10T06:44:07.189Z,93861.69
2022-09-10T06:47:09.566Z,93886.75
2022-09-10T06:49:19.924Z,93856.31
2022-09-10T06:51:46.279Z,93878.59
2022-09-10T06:54:13.023Z,93902.16
2022-09-10T06:56:39.478Z,93873.25
2022-09-10T06:59:05.860Z,93865.34
2022-09-10T07:01:32.983Z,93883.28
2022-09-10T07:04:00.965Z,93889.38
2022-09-10T07:06:31.889Z,93879.81
2022-09-10T07:08:59.359Z,93893.91
2022-09-10T07:11:28.561Z,93887.81
2022-09-10T07:13:55.029Z,93902.50
2022-09-10T07:16:23.042Z,93892.09
2022-09-10T07:18:51.199Z,93910.97
2022-09-10T07:21:19.196Z,93909.81
2022-09-10T07:23:48.337Z,93888.94
2022-09-10T07:26:16.898Z,93915.97
2022-09-10T07:28:45.218Z,93913.22
2022-09-10T07:31:29.759Z,93924.72
2022-09-10T07:34:03.041Z,93904.91
2022-09-10T07:36:30.117Z,93919.81
2022-09-10T07:38:57.972Z,93926.69
2022-09-10T07:41:29.460Z,93933.72
2022-09-10T07:43:56.265Z,93913.00
2022-09-10T07:46:25.473Z,93919.13
2022-09-10T07:48:59.592Z,93910.41
2022-09-10T07:51:30.223Z,93954.03
2022-09-10T07:53:59.622Z,93926.25
2022-09-10T07:56:26.486Z,93924.41
2022-09-10T07:58:54.104Z,93961.03
2022-09-10T08:01:21.034Z,93960.78
2022-09-10T08:03:47.535Z,93954.41
2022-09-10T08:06:14.579Z,93957.16
2022-09-10T08:08:50.813Z,93936.63
2022-09-10T08:11:19.079Z,93979.50
2022-09-10T08:13:51.133Z,93987.19
2022-09-10T08:16:26.785Z,93988.53
2022-09-10T08:18:58.023Z,93998.28
2022-09-10T08:21:27.647Z,93987.72
2022-09-10T08:23:54.801Z,93976.50
2022-09-10T08:26:23.696Z,93974.28
2022-09-10T08:28:55.828Z,93960.34
2022-09-10T08:31:23.011Z,93998.63
2022-09-10T08:33:53.081Z,93964.66
2022-09-10T08:36:21.687Z,94015.53
2022-09-10T08:38:50.291Z,94013.31
2022-09-10T08:41:19.336Z,94015.75
2022-09-10T08:43:58.150Z,93984.72
2022-09-10T08:46:27.409Z,94009.78
2022-09-10T08:49:20.783Z,93987.78
2022-09-10T08:51:53.528Z,94013.47
2022-09-10T08:54:26.715Z,93992.50
2022-09-10T08:56:56.329Z,94008.88
2022-09-10T08:59:37.447Z,93992.06
2022-09-10T09:02:37.804Z,93963.34
2022-09-10T09:05:14.253Z,94008.75
2022-09-10T09:07:40.850Z,94011.22
2022-09-10T09:10:45.317Z,94023.13
2022-09-10T09:13:42.617Z,94000.75
2022-09-10T09:16:28.787Z,94025.34
2022-09-10T09:19:36.494Z,94033.25
2022-09-10T09:22:10.826Z,94028.09
2022-09-10T09:24:58.878Z,94000.63
2022-09-10T09:27:33.597Z,94022.41
2022-09-10T15:47:59.457Z,93855.00
2022-09-10T15:50:25.918Z,93850.75
2022-09-10T15:52:52.318Z,93805.16
2022-09-10T15:55:21.655Z,93851.22
2022-09-10T15:57:51.777Z,93877.13
2022-09-10T16:00:31.072Z,93858.75
2022-09-10T16:02:57.495Z,93864.16
2022-09-10T16:05:30.951Z,93845.34
2022-09-10T16:07:57.319Z,93869.38
2022-09-10T16:10:24.884Z,93863.63
2022-09-10T16:12:51.836Z,93854.53
2022-09-10T16:15:18.235Z,93854.72
2022-09-10T16:17:45.909Z,93826.81
2022-09-10T16:20:25.542Z,93854.81
2022-09-10T16:22:54.470Z,93884.19
2022-09-10T16:25:21.027Z,93826.91
2022-09-10T16:27:47.496Z,93868.63
2022-09-10T16:30:13.881Z,93857.59
2022-09-10T16:32:42.271Z,93838.66
2022-09-10T16:35:09.411Z,93858.59
2022-09-10T16:37:35.755Z,93880.25
2022-09-10T16:40:02.615Z,93846.06
2022-09-10T16:42:29.146Z,93871.03
2022-09-10T16:44:56.365Z,93855.88
2022-09-10T16:47:22.725Z,93878.78
2022-09-10T16:49:49.077Z,93898.00
2022-09-10T16:52:15.431Z,93886.53
2022-09-10T16:54:42.015Z,93748.81
2022-09-10T16:57:08.370Z,93878.25
2022-09-10T16:59:35.251Z,93859.66
2022-09-10T17:02:01.656Z,93879.69
2022-09-10T17:04:29.207Z,93893.81
2022-09-10T17:06:57.246Z,93892.53
2022-09-10T17:09:24.770Z,93901.72
2022-09-10T17:11:51.121Z,93919.19
2022-09-10T17:14:17.469Z,93887.44
2022-09-10T17:16:44.729Z,93891.13
2022-09-10T17:19:15.476Z,93927.78
2022-09-10T17:21:44.496Z,93923.53
2022-09-10T17:24:12.621Z,93923.44
2022-09-10T17:26:46.869Z,93927.31
2022-09-10T17:29:19.563Z,93910.09
2022-09-10T17:31:46.961Z,93925.94
2022-09-10T17:34:15.297Z,93927.63
2022-09-10T17:36:45.353Z,93883.25
2022-09-10T17:39:12.384Z,93928.69
2022-09-10T17:41:39.590Z,93928.53
2022-09-10T17:44:08.013Z,93927.63
2022-09-10T17:46:36.107Z,93914.06
2022-09-10T17:49:03.541Z,93923.09
2022-09-10T17:51:32.596Z,93927.66
2022-09-10T17:53:59.192Z,93938.22
2022-09-10T17:56:26.968Z,93910.09
2022-09-10T17:59:01.647Z,93944.00
2022-09-10T18:01:34.380Z,93946.75
2022-09-10T18:04:00.939Z,93915.66
2022-09-10T18:06:29.016Z,93900.75
2022-09-10T18:09:00.445Z,93909.75
2022-09-10T18:11:29.574Z,93956.97
2022-09-10T18:13:57.625Z,93948.25
2022-09-10T18:16:26.759Z,93961.06
2022-09-10T18:18:59.997Z,93956.97
2022-09-10T18:21:32.811Z,93956.31
2022-09-10T18:24:04.862Z,93965.13
2022-09-10T18:26:33.653Z,93966.06
2022-09-10T18:29:04.590Z,93933.75
2022-09-10T18:31:33.742Z,93947.47
2022-09-10T18:34:01.298Z,93959.88
2022-09-10T18:36:28.713Z,93964.44
2022-09-10T18:38:56.079Z,93933.00
2022-09-10T18:41:27.513Z,93963.28
2022-09-10T18:43:57.426Z,93969.41
2022-09-10T18:46:25.960Z,93980.09
2022-09-10T18:48:53.121Z,93973.19
2022-09-10T18:51:21.977Z,93985.91
2022-09-10T18:53:49.550Z,93969.53
2022-09-10T18:56:18.531Z,93986.88
2022-09-10T18:59:05.374Z,93981.97
2022-09-10T19:01:32.754Z,93981.47
2022-09-10T19:03:59.220Z,93989.06
2022-09-10T19:06:28.756Z,93970.69
2022-09-10T19:09:00.595Z,94006.56
2022-09-10T19:11:32.913Z,93999.13
2022-09-10T19:14:01.082Z,93979.19
2022-09-10T19:16:30.222Z,94007.81
2022-09-10T19:18:59.390Z,94022.13
2022-09-10T19:21:27.353Z,94001.97
2022-09-10T19:23:59.518Z,94019.63
2022-09-10T19:26:27.393Z,94005.19
2022-09-10T19:28:57.207Z,94008.97
2022-09-10T19:31:25.504Z,93990.44
2022-09-10T19:33:56.678Z,93996.38
2022-09-10T19:36:25.753Z,93982.69
2022-09-10T19:38:59.794Z,94005.97
2022-09-10T19:41:26.340Z,94025.84
2022-09-10T19:43:54.020Z,94018.78
2022-09-10T19:46:22.112Z,93983.81
2022-09-10T19:48:49.138Z,94002.22
2022-09-10T19:51:20.078Z,94026.03
2022-09-10T19:53:47.334Z,94015.19
2022-09-10T19:56:20.270Z,94023.59
2022-09-10T19:58:51.771Z,94028.09
2022-09-10T20:01:21.354Z,94023.59
2022-09-10T20:03:50.646Z,94033.59
2022-09-10T20:06:19.366Z,94028.50
2022-09-10T20:08:47.126Z,94018.34
2022-09-10T20:11:17.794Z,94018.16
2022-09-10T20:13:45.142Z,94022.06
2022-09-10T20:16:12.903Z,94025.47
2022-09-10T20:18:39.853Z,94020.25
2022-09-10T20:21:19.866Z,94042.00
2022-09-10T20:23:48.734Z,94045.91
2022-09-10T20:26:18.163Z,94052.09
2022-09-10T20:28:50.616Z,94027.91
2022-09-10T20:31:17.384Z,94003.03
2022-09-10T20:33:44.007Z,94037.09
2022-09-10T20:36:15.145Z,94052.00
2022-09-10T20:38:43.679Z,94016.81
2022-09-10T20:41:14.180Z,94022.41
2022-09-10T20:43:40.575Z,94015.59
2022-09-10T20:46:14.805Z,94043.97
2022-09-10T20:48:44.823Z,93973.22
2022-09-10T20:51:13.541Z,94014.41
2022-09-10T20:53:41.277Z,94054.75
2022-09-10T20:56:14.097Z,94024.28
2022-09-10T20:58:41.505Z,94044.88
2022-09-10T21:01:20.132Z,94048.34
2022-09-10T21:03:48.306Z,94021.66
2022-09-10T21:06:18.277Z,94019.13
2022-09-10T21:08:47.579Z,94047.56
2022-09-10T21:11:17.240Z,94052.22
2022-09-10T21:13:52.809Z,94041.06
2022-09-10T21:16:33.649Z,94020.03
2022-09-10T21:19:05.715Z,94048.44
2022-09-10T21:21:34.068Z,94052.41
2022-09-10T21:24:03.094Z,94057.31
2022-09-10T21:26:32.420Z,94059.78
2022-09-10T21:29:02.137Z,94059.88
2022-09-10T21:31:29.609Z,94050.88
2022-09-10T21:34:02.419Z,94062.47
2022-09-10T21:36:30.815Z,94066.56
2022-09-10T21:38:59.856Z,94062.06
2022-09-10T21:41:31.118Z,94054.50
2022-09-10T21:43:58.897Z,94046.53
2022-09-10T21:46:25.741Z,94029.88
2022-09-10T21:48:52.359Z,94063.56
2022-09-10T21:51:20.332Z,94058.00
2022-09-10T21:53:47.626Z,94044.34
2022-09-10T21:56:17.609Z,94047.72
2022-09-10T21:58:45.587Z,94049.09
2022-09-10T22:01:21.946Z,94056.72
2022-09-10T22:03:49.178Z,94059.44
2022-09-10T22:06:28.256Z,94057.38
2022-09-10T22:09:00.405Z,94054.94
2022-09-10T22:11:30.294Z,94040.22
2022-09-10T22:14:04.181Z,94058.84
2022-09-10T22:16:32.548Z,94050.81
2022-09-10T22:19:01.384Z,94055.66
2022-09-10T22:21:29.023Z,94043.59
2022-09-10T22:23:55.586Z,94063.31
2022-09-10T22:26:24.747Z,94052.31
2022-09-10T22:28:54.207Z,94056.72
2022-09-10T22:31:26.232Z,94051.75
2022-09-10T22:34:04.916Z,94057.31
2022-09-10T22:36:34.067Z,94053.69
2022-09-10T22:39:10.137Z,94026.88
2022-09-10T22:41:36.999Z,94050.88
2022-09-10T22:44:03.721Z,94059.41
2022-09-10T22:46:31.586Z,94024.19
2022-09-10T22:48:58.275Z,94054.94
2022-09-10T22:51:34.273Z,94040.91
2022-09-10T22:54:01.738Z,94055.94
2022-09-10T22:56:28.744Z,94065.16
2022-09-10T22:58:57.632Z,94060.31
2022-09-10T23:01:27.650Z,94056.59
2022-09-10T23:03:59.048Z,94049.38
2022-09-10T23:06:28.215Z,94064.91
2022-09-10T23:09:01.104Z,94069.06
2022-09-10T23:11:30.147Z,94067.13
2022-09-10T23:14:02.674Z,94056.53
2022-09-10T23:16:34.434Z,94068.75
2022-09-10T23:19:03.996Z,94039.38
2022-09-10T23:21:31.927Z,94061.44
2022-09-10T23:24:27.850Z,94064.16
2022-09-10T23:26:55.229Z,94046.63
2022-09-10T23:29:23.855Z,94047.88
2022-09-10T23:31:53.272Z,94065.94
2022-09-10T23:34:20.657Z,94034.13
2022-09-10T23:36:48.892Z,94065.13
2022-09-10T23:39:22.245Z,94058.25
2022-09-10T23:41:50.244Z,94058.66
2022-09-10T23:44:17.440Z,94067.53
2022-09-10T23:46:44.618Z,94042.91
2022-09-10T23:49:12.109Z,94062.66
2022-09-10T23:51:39.025Z,94066.53
2022-09-10T23:54:06.121Z,94078.91
2022-09-10T23:56:32.803Z,94072.03
2022-09-10T23:59:03.445Z,94061.28
